Time;durP1;ratioP1;P1;durP2;ratioP2;P2;SDS_P1;SDS_P2;PMS_P1;PMS_P2;Temp;Humidity;BMP_temperature;BMP_pressure;BME280_temperature;BME280_humidity;BME280_pressure;Samples;Min_cycle;Max_cycle;Signal;HPM_P1;HPM_P2
2022/06/24 00:00:33;;;;;;;7.80;2.00;;;16.50;99.90;;;;;;5067965;28;20507;-78
2022/06/24 00:02:59;;;;;;;4.83;1.90;;;16.50;99.90;;;;;;5052227;28;20473;-76
2022/06/24 00:05:29;;;;;;;4.73;1.70;;;16.50;99.90;;;;;;5068039;28;20790;-77
2022/06/24 00:07:54;;;;;;;3.00;1.60;;;16.50;99.90;;;;;;5063738;28;20939;-77
2022/06/24 00:10:28;;;;;;;2.33;1.17;;;16.50;99.90;;;;;;5074292;28;20438;-76
2022/06/24 00:12:54;;;;;;;2.63;1.37;;;16.60;99.90;;;;;;5080467;28;20961;-74
2022/06/24 00:15:28;;;;;;;4.00;1.40;;;16.60;99.90;;;;;;5067792;28;20983;-76
2022/06/24 00:17:54;;;;;;;4.40;1.70;;;16.60;99.90;;;;;;5068081;28;20427;-75
2022/06/24 00:20:21;;;;;;;3.90;1.53;;;16.70;99.90;;;;;;5067592;28;20427;-76
2022/06/24 00:22:50;;;;;;;8.83;2.30;;;16.60;99.90;;;;;;5070424;28;20721;-77
2022/06/24 00:25:17;;;;;;;2.50;1.33;;;16.70;99.90;;;;;;5070027;28;20545;-76
2022/06/24 00:28:04;;;;;;;4.43;1.63;;;16.60;99.90;;;;;;5067735;28;20425;-75
2022/06/24 00:30:41;;;;;;;16.13;2.13;;;16.70;99.90;;;;;;5067601;28;20464;-76
2022/06/24 00:33:21;;;;;;;10.00;2.47;;;16.60;99.90;;;;;;5069143;28;20466;-76
2022/06/24 00:35:56;;;;;;;2.70;1.20;;;16.60;99.90;;;;;;5068822;28;20440;-76
2022/06/24 00:38:28;;;;;;;6.13;1.83;;;16.70;99.90;;;;;;5084582;28;20507;-76
2022/06/24 00:41:15;;;;;;;6.97;1.90;;;16.70;99.90;;;;;;5079888;28;20952;-77
2022/06/24 00:43:46;;;;;;;4.53;1.43;;;16.60;99.90;;;;;;5069759;28;20999;-77
2022/06/24 00:46:27;;;;;;;8.40;2.07;;;16.60;99.90;;;;;;5067065;28;20411;-76
2022/06/24 00:49:03;;;;;;;2.47;1.40;;;16.50;99.90;;;;;;5066911;28;20426;-76
2022/06/24 00:51:36;;;;;;;11.43;1.70;;;16.50;99.90;;;;;;5068038;28;21002;-77
2022/06/24 00:54:13;;;;;;;4.30;1.80;;;16.50;99.90;;;;;;5065587;28;20865;-76
2022/06/24 00:56:40;;;;;;;2.60;1.13;;;16.50;99.90;;;;;;5066817;28;20419;-76
2022/06/24 00:59:08;;;;;;;4.90;1.77;;;16.50;99.90;;;;;;5065790;28;20424;-76
2022/06/24 01:01:38;;;;;;;6.00;1.70;;;16.50;99.90;;;;;;5051187;28;20426;-76
2022/06/24 01:04:07;;;;;;;5.33;1.70;;;16.40;99.90;;;;;;5075601;28;20434;-76
2022/06/24 01:06:34;;;;;;;7.30;2.43;;;16.50;99.90;;;;;;5078638;28;20584;-76
2022/06/24 01:09:00;;;;;;;5.23;1.90;;;16.50;99.90;;;;;;5072042;28;20445;-77
2022/06/24 01:11:32;;;;;;;3.57;1.90;;;16.50;99.90;;;;;;5066726;28;20927;-77
2022/06/24 01:13:58;;;;;;;10.90;2.17;;;16.50;99.90;;;;;;5066431;28;20216;-76
2022/06/24 01:16:25;;;;;;;5.13;2.00;;;16.50;99.90;;;;;;5066267;28;20411;-75
2022/06/24 01:18:58;;;;;;;3.57;1.80;;;16.50;99.90;;;;;;5066750;28;20503;-74
2022/06/24 01:21:49;;;;;;;7.97;3.17;;;16.50;99.90;;;;;;5080781;28;20451;-75
2022/06/24 01:24:20;;;;;;;16.60;2.17;;;16.50;99.90;;;;;;5066723;28;20808;-76
2022/06/24 01:26:49;;;;;;;9.43;2.57;;;16.50;99.90;;;;;;5066773;28;20911;-76
2022/06/24 01:29:15;;;;;;;7.67;2.30;;;16.50;99.90;;;;;;5066575;28;20415;-73
2022/06/24 01:31:42;;;;;;;4.90;2.77;;;16.50;99.90;;;;;;5065768;28;20414;-76
2022/06/24 01:34:11;;;;;;;4.53;1.90;;;16.50;99.90;;;;;;5058969;28;20990;-76
2022/06/24 01:36:38;;;;;;;4.03;2.10;;;16.50;99.90;;;;;;5069229;28;20472;-73
2022/06/24 01:39:04;;;;;;;9.63;2.53;;;16.50;99.90;;;;;;5066728;28;20832;-77
2022/06/24 01:41:31;;;;;;;5.30;1.93;;;16.50;99.90;;;;;;5072406;28;20448;-77
2022/06/24 01:43:56;;;;;;;3.10;1.53;;;16.50;99.90;;;;;;5066225;28;20847;-77
2022/06/24 01:46:22;;;;;;;5.60;2.37;;;16.50;99.90;;;;;;5066732;28;20415;-75
2022/06/24 01:48:47;;;;;;;4.97;2.40;;;16.50;99.90;;;;;;5080592;28;20685;-77
2022/06/24 01:51:15;;;;;;;6.30;1.93;;;16.50;99.90;;;;;;5066608;28;20185;-76
2022/06/24 01:53:41;;;;;;;3.30;1.83;;;16.40;99.90;;;;;;5066345;28;20239;-76
2022/06/24 01:56:06;;;;;;;3.30;1.67;;;16.50;99.90;;;;;;5073692;28;20987;-76
2022/06/24 01:58:32;;;;;;;3.73;1.70;;;16.50;99.90;;;;;;5068976;28;20227;-77
2022/06/24 02:00:58;;;;;;;9.27;2.40;;;16.40;99.90;;;;;;5070332;28;20192;-77
2022/06/24 02:03:24;;;;;;;12.23;2.53;;;16.40;99.90;;;;;;5072659;28;20299;-76
2022/06/24 02:05:51;;;;;;;3.63;1.80;;;16.40;99.90;;;;;;5084450;28;20177;-76
2022/06/24 02:08:16;;;;;;;14.13;2.03;;;16.30;99.90;;;;;;5070074;28;20646;-76
2022/06/24 02:13:26;;;;;;;4.67;1.80;;;16.30;99.90;;;;;;5069637;28;20612;-77
2022/06/24 02:15:58;;;;;;;4.30;2.13;;;16.30;99.90;;;;;;5074046;28;20455;-77
2022/06/24 02:18:24;;;;;;;3.20;1.60;;;16.30;99.90;;;;;;5106297;28;20176;-77
2022/06/24 02:20:50;;;;;;;6.10;2.03;;;16.20;99.90;;;;;;5101956;28;20427;-76
2022/06/24 02:23:18;;;;;;;7.53;2.30;;;16.20;99.90;;;;;;5106713;28;20481;-77
2022/06/24 02:25:48;;;;;;;10.10;1.63;;;16.10;99.90;;;;;;5100725;28;20443;-78
2022/06/24 02:28:14;;;;;;;5.33;1.80;;;16.10;99.90;;;;;;5101259;28;20435;-77
2022/06/24 02:30:41;;;;;;;5.10;2.27;;;16.10;99.90;;;;;;5098117;28;20416;-75
2022/06/24 02:33:08;;;;;;;5.17;2.60;;;16.10;99.90;;;;;;5088255;28;20530;-76
2022/06/24 02:35:34;;;;;;;6.13;2.27;;;16.10;99.90;;;;;;5090204;28;20419;-76
2022/06/24 02:38:00;;;;;;;5.77;1.63;;;16.00;99.90;;;;;;5074487;28;20454;-76
2022/06/24 02:43:33;;;;;;;4.07;1.60;;;16.00;99.90;;;;;;5070822;28;20357;-76
2022/06/24 02:46:02;;;;;;;7.40;1.60;;;16.00;99.90;;;;;;5072346;28;20431;-75
2022/06/24 02:48:29;;;;;;;6.03;1.90;;;16.00;99.90;;;;;;5091983;28;20575;-76
2022/06/24 02:50:59;;;;;;;3.50;2.43;;;15.90;99.90;;;;;;5078015;28;20451;-76
2022/06/24 02:53:26;;;;;;;5.87;1.97;;;15.90;99.90;;;;;;5071277;28;20435;-76
2022/06/24 02:55:57;;;;;;;10.07;3.27;;;15.90;99.90;;;;;;5081248;28;20457;-76
2022/06/24 02:58:23;;;;;;;2.50;1.50;;;15.90;99.90;;;;;;5071109;28;20931;-76
2022/06/24 03:00:49;;;;;;;6.47;2.33;;;15.90;99.90;;;;;;5070189;28;20476;-76
2022/06/24 03:03:16;;;;;;;3.97;2.30;;;15.90;99.90;;;;;;5081717;28;20224;-76
2022/06/24 03:05:42;;;;;;;13.23;2.90;;;15.90;99.90;;;;;;5073634;28;20193;-76
2022/06/24 03:08:10;;;;;;;5.53;1.80;;;15.80;99.90;;;;;;5069224;28;20795;-76
2022/06/24 03:10:36;;;;;;;3.43;1.80;;;15.80;99.90;;;;;;5071047;28;20423;-73
2022/06/24 03:13:02;;;;;;;5.20;1.73;;;15.80;99.90;;;;;;5081870;28;20431;-76
2022/06/24 03:15:28;;;;;;;4.93;2.03;;;15.80;99.90;;;;;;5089307;28;20210;-77
2022/06/24 03:17:54;;;;;;;7.87;3.67;;;15.80;99.90;;;;;;5089355;28;20603;-77
2022/06/24 03:20:20;;;;;;;10.97;2.60;;;15.80;99.90;;;;;;5089060;28;20447;-77
2022/06/24 03:22:46;;;;;;;10.77;1.90;;;15.80;99.90;;;;;;5070486;28;20216;-77
2022/06/24 03:25:11;;;;;;;3.43;1.83;;;15.80;99.90;;;;;;5087417;28;20215;-77
2022/06/24 03:27:37;;;;;;;4.93;2.00;;;15.80;99.90;;;;;;5075527;28;20188;-77
2022/06/24 03:30:06;;;;;;;8.03;2.03;;;15.80;99.90;;;;;;5068631;28;20189;-77
2022/06/24 03:32:31;;;;;;;13.63;2.27;;;15.70;99.90;;;;;;5077029;28;20457;-76
2022/06/24 03:34:57;;;;;;;7.70;2.33;;;15.80;99.90;;;;;;5074962;28;20423;-77
2022/06/24 03:37:23;;;;;;;7.13;2.43;;;15.70;99.90;;;;;;5076007;28;20240;-75
2022/06/24 03:39:48;;;;;;;5.10;2.17;;;15.70;99.90;;;;;;5071203;28;20187;-77
2022/06/24 03:42:14;;;;;;;4.73;2.20;;;15.70;99.90;;;;;;5085965;28;20697;-77
2022/06/24 03:44:39;;;;;;;6.50;1.63;;;15.70;99.90;;;;;;5071910;28;20781;-77
2022/06/24 03:47:05;;;;;;;13.60;1.97;;;15.70;99.90;;;;;;5068653;28;20191;-76
2022/06/24 03:49:31;;;;;;;4.00;1.97;;;15.70;99.90;;;;;;5068266;28;20184;-77
2022/06/24 03:51:57;;;;;;;8.20;2.30;;;15.70;99.90;;;;;;5068116;28;20216;-77
2022/06/24 03:54:22;;;;;;;4.27;2.33;;;15.60;99.90;;;;;;5067803;28;20270;-76
2022/06/24 03:56:48;;;;;;;3.43;1.90;;;15.70;99.90;;;;;;5080113;28;20234;-77
2022/06/24 03:59:14;;;;;;;9.60;2.20;;;15.70;99.90;;;;;;5067841;28;20657;-77
2022/06/24 04:01:40;;;;;;;4.90;2.30;;;15.60;99.90;;;;;;5069484;28;20190;-76
2022/06/24 04:04:05;;;;;;;6.33;1.73;;;15.60;99.90;;;;;;5067623;28;20201;-77
2022/06/24 04:06:31;;;;;;;4.97;2.10;;;15.60;99.90;;;;;;5067873;28;20195;-77
2022/06/24 04:08:57;;;;;;;2.80;1.90;;;15.60;99.90;;;;;;5067683;28;20562;-77
2022/06/24 04:11:23;;;;;;;11.40;2.70;;;15.60;99.90;;;;;;5073722;28;20636;-76
2022/06/24 04:13:48;;;;;;;7.23;2.30;;;15.60;99.90;;;;;;5072599;28;20205;-77
2022/06/24 04:16:15;;;;;;;4.93;2.40;;;15.60;99.90;;;;;;5067686;28;20908;-76
2022/06/24 04:18:41;;;;;;;4.80;2.03;;;15.70;99.90;;;;;;5062473;28;20237;-77
2022/06/24 04:21:15;;;;;;;3.33;1.90;;;15.70;99.90;;;;;;5068679;28;20438;-77
2022/06/24 04:23:42;;;;;;;8.70;2.60;;;15.70;99.90;;;;;;5067162;28;20484;-77
2022/06/24 04:26:09;;;;;;;10.10;2.73;;;15.80;99.90;;;;;;5069136;28;20969;-77
2022/06/24 04:28:35;;;;;;;6.37;2.43;;;15.80;99.90;;;;;;5067493;28;20416;-77
2022/06/24 04:31:00;;;;;;;5.07;2.50;;;15.90;99.90;;;;;;5071241;28;20511;-77
2022/06/24 04:33:26;;;;;;;7.37;1.93;;;15.90;99.90;;;;;;5095063;28;20469;-76
2022/06/24 04:35:52;;;;;;;4.50;2.10;;;15.90;99.90;;;;;;5075467;28;20839;-77
2022/06/24 04:38:17;;;;;;;12.23;2.30;;;16.00;99.90;;;;;;5081241;28;20570;-77
2022/06/24 04:40:43;;;;;;;12.53;2.60;;;16.00;99.90;;;;;;5073947;28;20192;-76
2022/06/24 04:43:09;;;;;;;4.23;1.97;;;16.00;99.90;;;;;;5082959;28;20209;-77
2022/06/24 04:45:35;;;;;;;4.70;2.30;;;16.00;99.90;;;;;;5068930;28;20809;-76
2022/06/24 04:48:01;;;;;;;8.93;2.43;;;16.10;99.90;;;;;;5084499;28;20187;-76
2022/06/24 04:50:27;;;;;;;3.30;2.10;;;16.10;99.90;;;;;;5070858;28;20475;-77
2022/06/24 04:52:53;;;;;;;8.10;2.10;;;16.20;99.90;;;;;;5070643;28;20212;-77
2022/06/24 04:55:19;;;;;;;3.40;2.00;;;16.20;99.90;;;;;;5074053;28;20419;-77
2022/06/24 04:57:45;;;;;;;7.27;2.67;;;16.20;99.90;;;;;;5068681;28;20188;-76
2022/06/24 05:00:11;;;;;;;4.27;1.60;;;16.20;99.90;;;;;;5074155;28;20434;-76
2022/06/24 05:02:37;;;;;;;7.87;2.50;;;16.30;99.90;;;;;;5067776;28;20858;-78
2022/06/24 05:05:03;;;;;;;9.60;2.77;;;16.30;99.90;;;;;;5071132;28;20423;-78
2022/06/24 05:07:29;;;;;;;4.33;2.00;;;16.40;99.90;;;;;;5067918;28;20184;-77
2022/06/24 05:09:55;;;;;;;6.37;2.17;;;16.40;99.90;;;;;;5066813;28;20427;-77
2022/06/24 05:12:21;;;;;;;4.60;2.50;;;16.40;99.90;;;;;;5066461;28;20733;-78
2022/06/24 05:14:46;;;;;;;6.27;1.77;;;16.40;99.90;;;;;;5077837;28;20196;-77
2022/06/24 05:17:12;;;;;;;4.33;1.43;;;16.50;99.90;;;;;;5065489;28;20185;-76
2022/06/24 05:19:38;;;;;;;8.33;2.03;;;16.50;99.90;;;;;;5066940;28;20235;-76
2022/06/24 05:22:04;;;;;;;14.10;1.80;;;16.60;99.90;;;;;;5066115;28;20227;-77
2022/06/24 05:24:33;;;;;;;5.43;1.80;;;16.60;99.90;;;;;;5066534;28;20208;-77
2022/06/24 05:26:58;;;;;;;3.40;1.77;;;16.60;99.90;;;;;;5066737;28;20457;-77
2022/06/24 05:29:24;;;;;;;4.97;1.80;;;16.60;99.90;;;;;;5067643;28;20462;-77
2022/06/24 05:31:50;;;;;;;4.33;1.80;;;16.60;99.90;;;;;;5081372;28;20210;-76
2022/06/24 05:34:15;;;;;;;6.53;2.67;;;16.70;99.90;;;;;;5085974;28;20212;-77
2022/06/24 05:36:42;;;;;;;2.87;1.47;;;16.80;99.90;;;;;;5061986;28;20185;-75
2022/06/24 05:39:09;;;;;;;4.03;1.87;;;16.80;99.90;;;;;;5075267;28;20220;-76
2022/06/24 05:41:39;;;;;;;10.07;2.20;;;16.90;99.90;;;;;;5081378;28;20426;-74
2022/06/24 05:44:05;;;;;;;5.80;2.90;;;17.00;99.90;;;;;;5071053;28;20547;-78
2022/06/24 05:46:30;;;;;;;13.67;2.70;;;17.00;99.90;;;;;;5077955;28;20851;-77
2022/06/24 05:48:57;;;;;;;2.87;1.47;;;17.10;99.90;;;;;;5085673;28;20191;-77
2022/06/24 05:51:23;;;;;;;18.00;2.30;;;17.20;99.90;;;;;;5075498;28;20242;-77
2022/06/24 05:56:33;;;;;;;4.90;2.37;;;17.30;99.90;;;;;;5078287;28;20436;-78
2022/06/24 05:58:59;;;;;;;10.70;2.00;;;17.30;99.90;;;;;;5074502;28;20423;-78
2022/06/24 06:01:26;;;;;;;8.70;1.93;;;17.40;99.90;;;;;;5074106;28;20238;-77
2022/06/24 06:03:52;;;;;;;7.20;1.97;;;17.50;99.90;;;;;;5075724;28;20499;-77
2022/06/24 06:06:18;;;;;;;7.93;1.87;;;17.50;99.90;;;;;;5082392;28;20418;-75
2022/06/24 06:08:44;;;;;;;8.47;2.10;;;17.50;99.90;;;;;;5080577;28;20501;-77
2022/06/24 06:11:19;;;;;;;9.33;1.87;;;17.60;99.90;;;;;;5087737;28;20576;-77
2022/06/24 06:13:46;;;;;;;6.10;2.10;;;17.60;99.90;;;;;;5077633;28;20291;-77
2022/06/24 06:16:13;;;;;;;6.47;1.77;;;17.60;99.90;;;;;;5072156;28;20431;-77
2022/06/24 06:18:39;;;;;;;13.73;3.20;;;17.60;99.90;;;;;;5068578;28;21053;-76
2022/06/24 06:21:07;;;;;;;4.40;2.17;;;17.70;99.90;;;;;;5085423;28;20413;-77
2022/06/24 06:23:34;;;;;;;3.40;1.97;;;17.90;99.90;;;;;;5069366;28;20477;-77
2022/06/24 06:26:03;;;;;;;7.60;2.30;;;17.90;99.90;;;;;;5069178;28;21212;-76
2022/06/24 06:28:29;;;;;;;7.60;1.90;;;18.10;99.90;;;;;;5071071;28;20523;-77
2022/06/24 06:30:54;;;;;;;2.90;1.80;;;18.10;99.90;;;;;;5060588;28;20414;-77
2022/06/24 06:33:20;;;;;;;7.30;1.93;;;18.30;99.90;;;;;;5074190;28;20506;-77
2022/06/24 06:35:46;;;;;;;4.33;1.73;;;18.40;99.90;;;;;;5073290;28;20677;-76
2022/06/24 06:38:12;;;;;;;12.43;2.30;;;18.60;99.90;;;;;;5081402;28;20788;-76
2022/06/24 06:40:38;;;;;;;6.23;2.30;;;18.80;99.90;;;;;;5080103;28;20458;-76
2022/06/24 06:43:05;;;;;;;3.50;1.80;;;19.00;99.90;;;;;;5077338;28;20803;-75
2022/06/24 06:45:32;;;;;;;3.40;1.60;;;19.10;99.90;;;;;;5075369;28;20422;-78
2022/06/24 06:47:58;;;;;;;4.17;1.33;;;19.20;99.90;;;;;;5079328;28;20454;-76
2022/06/24 06:50:24;;;;;;;10.70;2.50;;;19.30;99.90;;;;;;5061664;28;20434;-73
2022/06/24 06:52:50;;;;;;;8.30;1.90;;;19.30;99.90;;;;;;5073946;28;20211;-76
2022/06/24 06:55:16;;;;;;;9.93;2.47;;;19.40;99.90;;;;;;5083011;28;20423;-76
2022/06/24 06:57:41;;;;;;;10.53;2.00;;;19.60;99.90;;;;;;5076728;28;21324;-77
2022/06/24 07:00:09;;;;;;;3.60;1.63;;;19.70;99.90;;;;;;5077922;28;20710;-77
2022/06/24 07:02:35;;;;;;;10.50;1.90;;;19.80;99.90;;;;;;5050779;28;20572;-77
2022/06/24 07:05:01;;;;;;;6.20;1.80;;;20.00;99.90;;;;;;5091718;28;20418;-77
2022/06/24 07:07:27;;;;;;;2.23;1.30;;;20.00;99.90;;;;;;5067981;28;20433;-77
2022/06/24 07:09:54;;;;;;;3.77;1.70;;;20.30;99.90;;;;;;5078583;28;20185;-77
2022/06/24 07:12:20;;;;;;;2.80;1.50;;;20.50;99.90;;;;;;5072545;28;20266;-77
2022/06/24 07:14:46;;;;;;;3.87;2.10;;;20.60;99.90;;;;;;5073123;28;20489;-77
2022/06/24 07:17:11;;;;;;;8.37;2.60;;;20.60;99.90;;;;;;5054926;28;20954;-77
2022/06/24 07:19:37;;;;;;;4.80;2.30;;;20.60;99.90;;;;;;5072723;28;20261;-77
2022/06/24 07:22:04;;;;;;;4.77;1.40;;;20.60;99.90;;;;;;5077504;28;20210;-77
2022/06/24 07:24:29;;;;;;;2.50;1.47;;;20.60;99.90;;;;;;5070756;28;20200;-78
2022/06/24 07:26:55;;;;;;;4.70;1.30;;;20.40;99.90;;;;;;5050470;28;20424;-77
2022/06/24 07:29:21;;;;;;;7.00;1.80;;;20.50;99.90;;;;;;5071451;28;20185;-76
2022/06/24 07:31:47;;;;;;;3.87;1.43;;;20.80;99.90;;;;;;5071740;28;20258;-76
2022/06/24 07:34:16;;;;;;;15.73;2.10;;;21.10;99.90;;;;;;5082375;28;20207;-76
2022/06/24 07:36:42;;;;;;;5.80;1.57;;;21.00;99.90;;;;;;5072041;28;20435;-77
2022/06/24 07:39:09;;;;;;;4.37;1.50;;;20.90;99.90;;;;;;5073308;28;20414;-76
2022/06/24 07:41:35;;;;;;;3.60;1.53;;;20.80;99.90;;;;;;5072182;28;20226;-77
2022/06/24 07:44:00;;;;;;;2.60;1.33;;;20.80;99.90;;;;;;5078752;28;20473;-77
2022/06/24 07:46:27;;;;;;;2.47;0.93;;;21.50;99.90;;;;;;5094783;28;20421;-77
2022/06/24 07:48:52;;;;;;;3.20;1.40;;;21.90;99.90;;;;;;5070705;28;20176;-76
2022/06/24 07:51:19;;;;;;;2.20;1.27;;;22.10;99.90;;;;;;5095549;28;20426;-78
2022/06/24 07:53:46;;;;;;;8.00;1.70;;;22.60;99.90;;;;;;5092991;28;20278;-77
2022/06/24 07:58:57;;;;;;;3.43;1.33;;;23.40;99.90;;;;;;5093820;28;20415;-78
2022/06/24 08:01:22;;;;;;;6.80;1.53;;;24.60;99.20;;;;;;5097087;28;20418;-78
2022/06/24 08:03:48;;;;;;;2.20;1.10;;;25.20;98.00;;;;;;5088967;28;20297;-78
2022/06/24 08:06:14;;;;;;;4.13;1.23;;;25.10;97.00;;;;;;5085176;28;20185;-78
2022/06/24 08:08:40;;;;;;;2.27;1.07;;;24.80;97.30;;;;;;5084780;28;20618;-78
2022/06/24 08:11:05;;;;;;;3.40;1.27;;;25.30;94.40;;;;;;5085942;28;20194;-78
2022/06/24 08:13:32;;;;;;;3.60;1.47;;;25.90;94.40;;;;;;5072591;28;20200;-76
2022/06/24 08:15:58;;;;;;;2.70;1.40;;;26.20;93.20;;;;;;5083679;28;20239;-76
2022/06/24 08:18:23;;;;;;;1.93;1.00;;;25.60;94.30;;;;;;5076669;28;20807;-78
2022/06/24 08:20:49;;;;;;;9.13;1.63;;;24.90;96.20;;;;;;5089895;28;20622;-78
2022/06/24 08:23:15;;;;;;;4.70;1.73;;;24.30;95.80;;;;;;5087160;28;20234;-77
2022/06/24 08:25:41;;;;;;;6.10;2.10;;;23.70;98.10;;;;;;5085795;28;20266;-79
2022/06/24 08:28:07;;;;;;;2.80;1.60;;;23.40;97.10;;;;;;5081511;28;20471;-78
2022/06/24 08:30:32;;;;;;;4.97;1.70;;;22.90;98.50;;;;;;5076047;28;20192;-77
2022/06/24 08:32:58;;;;;;;1.90;1.10;;;22.50;98.90;;;;;;5080514;28;20208;-78
2022/06/24 08:35:24;;;;;;;21.87;1.90;;;22.40;99.50;;;;;;5086979;28;20244;-78
2022/06/24 08:37:49;;;;;;;3.93;1.93;;;23.10;99.90;;;;;;5088388;28;20236;-78
2022/06/24 08:40:16;;;;;;;2.47;1.00;;;24.50;96.30;;;;;;5079297;28;20331;-75
2022/06/24 08:42:44;;;;;;;2.70;1.00;;;25.30;94.60;;;;;;5081623;28;20251;-79
2022/06/24 08:45:13;;;;;;;2.90;0.97;;;25.30;94.70;;;;;;5090104;28;20422;-77
2022/06/24 08:47:39;;;;;;;2.92;1.33;;;25.90;94.20;;;;;;5086632;28;20176;-79
2022/06/24 08:50:08;;;;;;;2.83;1.40;;;26.30;92.60;;;;;;5089487;28;20710;-78
2022/06/24 08:52:34;;;;;;;3.28;1.30;;;26.00;93.20;;;;;;5082097;28;20717;-76
2022/06/24 08:55:03;;;;;;;4.00;1.63;;;26.20;92.40;;;;;;5072992;28;20187;-79
2022/06/24 08:57:30;;;;;;;3.78;1.42;;;25.90;92.70;;;;;;5074684;28;20245;-78
2022/06/24 08:59:55;;;;;;;2.47;1.00;;;25.90;92.70;;;;;;5080244;28;20204;-77
2022/06/24 09:02:21;;;;;;;18.20;1.80;;;25.30;93.50;;;;;;5075048;28;20196;-78
2022/06/24 09:04:47;;;;;;;3.43;1.13;;;24.70;94.90;;;;;;5070236;28;20823;-75
2022/06/24 09:07:30;;;;;;;2.47;1.33;;;24.50;95.40;;;;;;5083340;28;20180;-78
2022/06/24 09:10:01;;;;;;;2.25;1.00;;;24.70;94.20;;;;;;5058550;28;20620;-79
2022/06/24 09:12:36;;;;;;;6.78;1.88;;;25.10;95.00;;;;;;5077843;28;20263;-78
2022/06/24 09:15:04;;;;;;;4.60;1.23;;;26.00;94.10;;;;;;5074271;28;20196;-78
2022/06/24 09:17:31;;;;;;;4.82;1.10;;;26.50;92.00;;;;;;5089402;28;20190;-79
2022/06/24 09:20:17;;;;;;;2.05;1.10;;;26.70;92.30;;;;;;5067219;28;20234;-75
2022/06/24 09:22:43;;;;;;;3.80;1.85;;;26.70;90.90;;;;;;5085451;28;20256;-78
2022/06/24 09:25:09;;;;;;;4.38;1.25;;;26.30;92.20;;;;;;5072420;28;20187;-79
2022/06/24 09:27:41;;;;;;;6.32;1.55;;;26.40;91.00;;;;;;5077193;28;20229;-79
2022/06/24 09:30:07;;;;;;;2.63;1.25;;;27.10;90.30;;;;;;5073023;28;20186;-79
2022/06/24 09:32:33;;;;;;;3.03;1.20;;;27.50;89.40;;;;;;5083663;28;20673;-79
2022/06/24 09:35:06;;;;;;;2.17;1.45;;;26.90;91.90;;;;;;5094618;28;20188;-78
2022/06/24 09:37:42;;;;;;;2.90;1.52;;;26.50;90.20;;;;;;5103666;28;20238;-78
2022/06/24 09:40:22;;;;;;;4.00;1.60;;;26.00;91.50;;;;;;5103257;28;20202;-78
2022/06/24 09:43:00;;;;;;;2.30;1.20;;;25.40;92.40;;;;;;5111366;28;20204;-78
2022/06/24 09:45:45;;;;;;;4.13;1.40;;;25.40;91.30;;;;;;5102981;28;20171;-78
2022/06/24 09:48:34;;;;;;;5.50;1.10;;;25.20;91.60;;;;;;5111550;27;20172;-78
2022/06/24 09:51:02;;;;;;;2.03;1.00;;;24.90;92.50;;;;;;5097140;28;20176;-78
2022/06/24 09:53:29;;;;;;;2.90;1.23;;;24.90;92.90;;;;;;5058242;28;20207;-78
2022/06/24 09:55:55;;;;;;;10.73;1.03;;;24.70;91.80;;;;;;5067432;28;20185;-77
2022/06/24 09:58:22;;;;;;;3.10;1.47;;;24.20;93.30;;;;;;5070368;28;20177;-78
2022/06/24 10:00:49;;;;;;;3.50;0.80;;;24.10;92.60;;;;;;5073955;28;20659;-78
2022/06/24 10:03:16;;;;;;;3.80;1.40;;;23.90;93.50;;;;;;5074756;28;21236;-78
2022/06/24 10:05:46;;;;;;;2.57;1.27;;;23.90;92.90;;;;;;5070516;28;20423;-78
2022/06/24 10:08:18;;;;;;;2.90;1.10;;;24.10;93.50;;;;;;5066511;28;20426;-78
2022/06/24 10:10:45;;;;;;;3.20;1.20;;;24.80;91.50;;;;;;5076784;28;20413;-77
2022/06/24 10:13:18;;;;;;;2.47;1.02;;;25.50;90.20;;;;;;5074424;28;20208;-79
2022/06/24 10:15:44;;;;;;;5.38;1.10;;;25.80;90.60;;;;;;5074673;28;20295;-76
2022/06/24 10:18:11;;;;;;;3.30;1.40;;;25.90;90.50;;;;;;5073254;28;20634;-79
2022/06/24 10:20:40;;;;;;;4.15;1.30;;;26.10;91.10;;;;;;5073329;28;20541;-78
2022/06/24 10:23:06;;;;;;;2.35;0.90;;;26.00;90.60;;;;;;5070688;28;20232;-77
2022/06/24 10:26:17;;;;;;;2.45;1.00;;;25.90;88.00;;;;;;5077306;28;20554;-78
2022/06/24 10:29:05;;;;;;;1.98;0.75;;;25.50;90.80;;;;;;5067167;28;20223;-78
2022/06/24 10:34:13;;;;;;;1.90;0.87;;;25.50;89.50;;;;;;5078694;28;20216;-78
2022/06/24 10:36:39;;;;;;;3.60;1.10;;;25.10;90.30;;;;;;5062975;28;20211;-78
2022/06/24 10:39:14;;;;;;;1.77;0.87;;;25.00;92.20;;;;;;5073836;28;20189;-78
2022/06/24 10:41:41;;;;;;;2.40;1.30;;;25.10;90.90;;;;;;5064698;28;20184;-77
2022/06/24 10:44:22;;;;;;;3.43;1.03;;;25.00;91.40;;;;;;5075134;28;21113;-78
2022/06/24 10:47:07;;;;;;;1.90;1.03;;;25.00;90.90;;;;;;5088795;28;20418;-78
2022/06/24 10:49:51;;;;;;;3.60;1.00;;;25.20;90.80;;;;;;5088586;28;21122;-78
2022/06/24 10:52:50;;;;;;;10.27;0.90;;;25.00;90.00;;;;;;5082100;28;20440;-78
2022/06/24 10:55:31;;;;;;;2.90;1.17;;;25.10;90.10;;;;;;5052936;28;20434;-77
2022/06/24 10:58:04;;;;;;;2.37;0.70;;;25.10;90.80;;;;;;5075557;28;20427;-78
2022/06/24 11:00:51;;;;;;;1.90;0.80;;;25.30;90.00;;;;;;5087085;28;21069;-78
2022/06/24 11:03:39;;;;;;;3.77;1.07;;;25.60;89.80;;;;;;5085460;28;20489;-77
2022/06/24 11:06:08;;;;;;;2.30;0.90;;;26.10;90.30;;;;;;5067586;28;20896;-78
2022/06/24 11:08:37;;;;;;;2.17;1.10;;;26.60;85.40;;;;;;5061438;28;20446;-78
2022/06/24 11:11:05;;;;;;;3.20;1.03;;;26.30;87.30;;;;;;5088080;28;20419;-75
2022/06/24 11:13:31;;;;;;;7.73;0.90;;;26.30;84.20;;;;;;5069859;28;20496;-75
2022/06/24 11:16:01;;;;;;;1.90;0.97;;;26.30;86.40;;;;;;5078543;28;21055;-78
2022/06/24 11:18:30;;;;;;;8.80;1.00;;;26.30;87.60;;;;;;5054310;28;20241;-78
2022/06/24 11:21:08;;;;;;;1.70;0.80;;;26.60;85.50;;;;;;5055893;28;20427;-76
2022/06/24 11:23:37;;;;;;;1.80;0.90;;;26.90;82.20;;;;;;5070053;28;20295;-78
2022/06/24 11:26:10;;;;;;;1.60;0.73;;;26.50;86.20;;;;;;5055150;28;20180;-77
2022/06/24 11:28:39;;;;;;;2.37;1.00;;;26.40;86.80;;;;;;5075997;28;20793;-77
2022/06/24 11:31:28;;;;;;;1.70;0.70;;;26.40;87.20;;;;;;5081301;28;20536;-73
2022/06/24 11:34:03;;;;;;;2.23;0.80;;;26.20;87.50;;;;;;5077036;28;20537;-78
2022/06/24 11:36:31;;;;;;;3.90;1.57;;;26.10;88.40;;;;;;5083726;28;20921;-76
2022/06/24 11:38:58;;;;;;;2.67;0.70;;;26.00;89.40;;;;;;5074110;28;20422;-78
2022/06/24 11:41:34;;;;;;;2.73;1.10;;;25.90;85.30;;;;;;5097529;28;20926;-77
2022/06/24 11:44:00;;;;;;;2.03;0.80;;;25.70;86.50;;;;;;5072907;28;20473;-78
2022/06/24 11:46:26;;;;;;;3.60;1.83;;;25.60;88.40;;;;;;5080185;28;20573;-79
2022/06/24 11:49:13;;;;;;;9.23;1.10;;;25.50;88.50;;;;;;5074347;28;20184;-80
2022/06/24 11:51:41;;;;;;;2.07;0.90;;;25.60;88.40;;;;;;5083698;28;20180;-77
2022/06/24 11:54:08;;;;;;;5.10;1.17;;;25.60;88.40;;;;;;5076913;28;20736;-77
2022/06/24 11:56:40;;;;;;;2.60;0.87;;;25.50;90.10;;;;;;5086255;28;20425;-77
2022/06/24 11:59:07;;;;;;;6.90;1.37;;;25.40;87.50;;;;;;5077849;28;20881;-76
2022/06/24 12:01:34;;;;;;;2.13;0.70;;;25.30;89.30;;;;;;5077540;28;20437;-77
2022/06/24 12:04:10;;;;;;;3.33;0.93;;;25.10;90.00;;;;;;5083345;28;20906;-77
2022/06/24 12:06:38;;;;;;;4.43;1.37;;;24.90;90.80;;;;;;5048382;28;21196;-74
2022/06/24 12:09:04;;;;;;;5.07;1.53;;;24.90;90.30;;;;;;5069983;28;20474;-79
2022/06/24 12:11:36;;;;;;;3.80;1.03;;;24.80;92.00;;;;;;5067904;28;20426;-74
2022/06/24 12:14:06;;;;;;;25.73;1.53;;;24.80;90.80;;;;;;5076867;28;20541;-78
2022/06/24 12:16:54;;;;;;;9.60;1.50;;;24.60;92.70;;;;;;5062177;28;20422;-76
2022/06/24 12:19:20;;;;;;;3.33;1.40;;;24.60;93.80;;;;;;5065750;28;20434;-75
2022/06/24 12:21:45;;;;;;;3.33;1.40;;;24.40;94.30;;;;;;5066799;28;20429;-74
2022/06/24 12:24:25;;;;;;;2.83;1.30;;;24.20;94.10;;;;;;5062890;28;20218;-77
2022/06/24 12:26:52;;;;;;;14.13;1.23;;;24.10;93.90;;;;;;5071749;28;20176;-76
2022/06/24 12:29:30;;;;;;;15.60;3.57;;;23.90;93.20;;;;;;5085903;28;20931;-76
2022/06/24 12:31:56;;;;;;;2.73;1.77;;;23.90;94.40;;;;;;5067734;28;20442;-78
2022/06/24 12:34:30;;;;;;;3.13;1.20;;;23.90;95.20;;;;;;5085479;28;20466;-79
2022/06/24 12:37:05;;;;;;;5.17;1.30;;;24.00;94.20;;;;;;5055976;28;20425;-75
2022/06/24 12:39:34;;;;;;;10.90;1.50;;;23.80;94.60;;;;;;5061320;28;20426;-77
2022/06/24 12:42:00;;;;;;;3.90;1.33;;;23.90;94.80;;;;;;5048233;28;20410;-78
2022/06/24 12:44:59;;;;;;;4.57;1.40;;;24.00;95.20;;;;;;5073411;28;20447;-76
2022/06/24 12:53:07;;;;;;;5.40;1.00;;;23.90;93.20;;;;;;5072774;28;21185;-77
2022/06/24 12:55:33;;;;;;;5.77;1.50;;;23.80;93.00;;;;;;5048182;28;20517;-76
2022/06/24 12:57:59;;;;;;;2.13;1.10;;;23.60;93.40;;;;;;5072904;28;20419;-78
2022/06/24 13:00:28;;;;;;;2.73;1.40;;;23.40;94.10;;;;;;5083794;28;20515;-77
2022/06/24 13:02:58;;;;;;;6.20;1.40;;;23.30;94.20;;;;;;5078891;28;20502;-75
2022/06/24 13:05:28;;;;;;;2.83;1.37;;;23.20;95.50;;;;;;5065883;28;20422;-77
2022/06/24 13:07:54;;;;;;;4.03;1.00;;;23.10;94.80;;;;;;5066855;28;21214;-76
2022/06/24 13:10:20;;;;;;;7.43;2.07;;;23.10;94.90;;;;;;5076589;28;20423;-74
2022/06/24 13:12:46;;;;;;;3.37;1.30;;;23.10;94.60;;;;;;5074558;28;20299;-74